Time;durP1;ratioP1;P1;durP2;ratioP2;P2;SDS_P1;SDS_P2;PMS_P1;PMS_P2;Temp;Humidity;BMP_temperature;BMP_pressure;BME280_temperature;BME280_humidity;BME280_pressure;Samples;Min_cycle;Max_cycle;Signal;HPM_P1;HPM_P2
2024/04/03 00:01:55;;;;;;;;;;;;;;;21.84;28.24;97559.13;5054646;28;1262;-76
2024/04/03 00:04:20;;;;;;;;;;;;;;;21.92;28.50;97564.56;5092946;28;1086;-76
2024/04/03 00:06:46;;;;;;;;;;;;;;;21.95;28.28;97553.09;5059887;28;1093;-75
2024/04/03 00:09:12;;;;;;;;;;;;;;;21.75;28.72;97561.84;5042948;28;1323;-76
2024/04/03 00:11:37;;;;;;;;;;;;;;;21.91;28.28;97568.63;5076346;28;914;-76
2024/04/03 00:14:03;;;;;;;;;;;;;;;22.11;28.02;97583.31;5059636;28;1092;-76
2024/04/03 00:16:28;;;;;;;;;;;;;;;21.81;28.67;97588.38;5059747;28;1053;-76
2024/04/03 00:18:54;;;;;;;;;;;;;;;22.03;28.31;97593.31;5076279;28;1961;-76
2024/04/03 00:21:19;;;;;;;;;;;;;;;22.08;28.20;97601.22;5095837;28;994;-76
2024/04/03 00:23:45;;;;;;;;;;;;;;;21.95;28.47;97600.44;5080345;28;958;-76
2024/04/03 00:26:10;;;;;;;;;;;;;;;21.98;28.45;97599.56;5096822;28;1015;-76
2024/04/03 00:28:36;;;;;;;;;;;;;;;22.15;28.30;97603.03;5097286;28;966;-75
2024/04/03 00:31:04;;;;;;;;;;;;;;;22.09;28.21;97602.81;5079994;28;926;-76
2024/04/03 00:33:30;;;;;;;;;;;;;;;21.96;28.47;97616.97;5096802;28;1040;-76
2024/04/03 00:35:59;;;;;;;;;;;;;;;21.75;28.81;97623.38;5068849;28;1119;-75
2024/04/03 00:38:24;;;;;;;;;;;;;;;21.81;28.66;97621.53;5059107;28;1906;-76
2024/04/03 00:41:00;;;;;;;;;;;;;;;22.02;28.24;97620.84;5091458;28;1136;-75
2024/04/03 00:43:26;;;;;;;;;;;;;;;21.93;28.75;97612.25;5090035;28;972;-76
2024/04/03 00:45:52;;;;;;;;;;;;;;;21.81;28.73;97615.88;5090768;28;954;-76
2024/04/03 00:48:17;;;;;;;;;;;;;;;21.81;28.79;97628.03;5090916;28;958;-76
2024/04/03 00:50:43;;;;;;;;;;;;;;;21.58;29.07;97631.22;5074250;28;1639;-76
2024/04/03 00:53:09;;;;;;;;;;;;;;;21.81;28.90;97630.84;5074108;28;1121;-76
2024/04/03 00:55:35;;;;;;;;;;;;;;;21.96;28.50;97621.84;5091371;28;976;-76
2024/04/03 00:58:01;;;;;;;;;;;;;;;21.87;28.57;97633.13;5073724;28;1977;-76
2024/04/03 01:00:26;;;;;;;;;;;;;;;21.80;28.81;97637.75;5090780;28;946;-76
2024/04/03 01:02:52;;;;;;;;;;;;;;;21.80;28.80;97649.06;5058991;28;915;-76
2024/04/03 01:05:17;;;;;;;;;;;;;;;21.75;28.75;97652.47;5057212;28;1193;-76
2024/04/03 01:07:43;;;;;;;;;;;;;;;21.95;28.22;97642.94;5090813;28;990;-76
2024/04/03 01:10:08;;;;;;;;;;;;;;;21.84;28.37;97644.09;5090770;28;983;-76
2024/04/03 01:12:34;;;;;;;;;;;;;;;21.51;28.90;97637.13;5058406;28;940;-76
2024/04/03 01:14:59;;;;;;;;;;;;;;;21.61;28.85;97644.47;5090328;28;995;-76
2024/04/03 01:17:25;;;;;;;;;;;;;;;21.77;28.40;97658.50;5090249;28;1966;-76
2024/04/03 01:19:50;;;;;;;;;;;;;;;21.63;28.77;97653.28;5091070;28;1333;-75
2024/04/03 01:22:16;;;;;;;;;;;;;;;21.80;28.31;97668.91;5058125;28;885;-75
2024/04/03 01:24:41;;;;;;;;;;;;;;;21.83;28.30;97682.16;5072050;28;964;-76
2024/04/03 01:27:07;;;;;;;;;;;;;;;21.60;28.72;97719.31;5039053;28;1640;-76
2024/04/03 01:29:35;;;;;;;;;;;;;;;21.57;28.94;97725.88;5055521;28;1131;-76
2024/04/03 01:32:02;;;;;;;;;;;;;;;21.63;28.66;97741.06;5055174;28;1068;-76
2024/04/03 01:34:27;;;;;;;;;;;;;;;21.64;28.78;97736.97;5039336;28;978;-76
2024/04/03 01:36:53;;;;;;;;;;;;;;;21.68;28.53;97732.00;5038898;28;1078;-76
2024/04/03 01:39:19;;;;;;;;;;;;;;;21.60;28.83;97736.28;5038862;28;1971;-76
2024/04/03 01:41:44;;;;;;;;;;;;;;;21.61;28.57;97737.13;5038860;28;1207;-76
2024/04/03 01:44:10;;;;;;;;;;;;;;;21.85;28.31;97739.13;5038822;28;1064;-76
2024/04/03 01:46:35;;;;;;;;;;;;;;;21.46;28.86;97742.41;5039067;28;1044;-76
2024/04/03 01:49:01;;;;;;;;;;;;;;;21.51;29.08;97741.84;5038800;28;983;-76
2024/04/03 01:51:26;;;;;;;;;;;;;;;21.82;28.41;97733.59;5015422;28;1241;-76
2024/04/03 01:53:52;;;;;;;;;;;;;;;21.64;28.76;97731.31;5031828;28;1063;-75
2024/04/03 01:56:17;;;;;;;;;;;;;;;21.78;28.41;97713.88;5035064;28;1070;-76
2024/04/03 01:58:43;;;;;;;;;;;;;;;21.66;28.46;97694.88;5035199;28;1906;-76
2024/04/03 02:01:08;;;;;;;;;;;;;;;21.64;28.84;97696.56;5035006;28;949;-76
2024/04/03 02:03:34;;;;;;;;;;;;;;;21.84;28.24;97712.06;5035196;28;986;-76
2024/04/03 02:05:59;;;;;;;;;;;;;;;21.58;29.02;97704.81;5035041;28;961;-76
2024/04/03 02:08:24;;;;;;;;;;;;;;;21.67;28.56;97699.28;5035145;28;990;-76
2024/04/03 02:10:50;;;;;;;;;;;;;;;21.69;28.67;97699.59;5035054;28;1306;-76
2024/04/03 02:13:16;;;;;;;;;;;;;;;21.99;28.03;97692.56;5037889;28;953;-76
2024/04/03 02:15:50;;;;;;;;;;;;;;;21.87;28.16;97698.25;5014655;28;1051;-76
2024/04/03 02:18:16;;;;;;;;;;;;;;;21.67;28.59;97712.66;4982382;28;1894;-76
2024/04/03 02:20:41;;;;;;;;;;;;;;;21.55;29.02;97723.50;5014795;28;999;-76
2024/04/03 02:23:07;;;;;;;;;;;;;;;21.69;28.77;97722.25;4997724;28;1199;-76
2024/04/03 02:25:32;;;;;;;;;;;;;;;21.73;28.74;97711.63;5001928;28;1407;-76
2024/04/03 02:27:58;;;;;;;;;;;;;;;21.71;28.50;97714.13;5017918;28;1060;-76
2024/04/03 02:30:23;;;;;;;;;;;;;;;21.75;28.80;97720.44;5017726;28;920;-76
2024/04/03 02:32:49;;;;;;;;;;;;;;;21.44;29.18;97716.56;5034162;28;940;-76
2024/04/03 02:35:14;;;;;;;;;;;;;;;21.71;28.91;97719.78;4962505;28;1194;-75
2024/04/03 02:37:40;;;;;;;;;;;;;;;21.78;28.45;97713.09;4995123;28;1914;-76
2024/04/03 02:40:06;;;;;;;;;;;;;;;21.81;28.65;97717.84;4994841;28;1055;-76
2024/04/03 02:42:31;;;;;;;;;;;;;;;21.85;28.54;97718.53;4994443;28;890;-76
2024/04/03 02:44:57;;;;;;;;;;;;;;;21.83;28.66;97724.66;4978863;28;1024;-76
2024/04/03 02:47:22;;;;;;;;;;;;;;;21.95;28.27;97734.38;5009424;28;1120;-76
2024/04/03 02:49:48;;;;;;;;;;;;;;;21.69;28.65;97739.25;4985117;28;1075;-76
2024/04/03 02:52:13;;;;;;;;;;;;;;;21.78;28.71;97736.53;5018053;28;944;-76
2024/04/03 02:54:39;;;;;;;;;;;;;;;21.71;28.82;97735.97;5001168;28;1014;-76
2024/04/03 02:57:04;;;;;;;;;;;;;;;21.68;28.85;97737.66;5001701;28;1046;-76
2024/04/03 02:59:30;;;;;;;;;;;;;;;21.69;28.71;97738.47;5017599;28;1980;-76
2024/04/03 03:01:55;;;;;;;;;;;;;;;21.41;29.15;97740.13;5017654;28;1173;-76
2024/04/03 03:04:21;;;;;;;;;;;;;;;21.63;29.06;97740.28;5017604;28;1025;-76
2024/04/03 03:06:46;;;;;;;;;;;;;;;21.68;28.68;97737.66;5043787;28;1342;-76
2024/04/03 03:09:12;;;;;;;;;;;;;;;21.77;28.66;97734.16;5071482;28;983;-76
2024/04/03 03:11:37;;;;;;;;;;;;;;;21.81;28.44;97746.97;5088403;28;919;-76
2024/04/03 03:14:04;;;;;;;;;;;;;;;21.52;29.01;97751.94;5071499;28;1085;-75
2024/04/03 03:16:29;;;;;;;;;;;;;;;21.59;28.85;97754.53;5071444;28;987;-76
2024/04/03 03:18:55;;;;;;;;;;;;;;;21.79;28.52;97760.78;5070961;28;1898;-76
2024/04/03 03:21:20;;;;;;;;;;;;;;;21.81;28.50;97760.31;5088452;28;1064;-76
2024/04/03 03:23:46;;;;;;;;;;;;;;;21.73;28.97;97768.25;5088840;28;904;-76
2024/04/03 03:26:11;;;;;;;;;;;;;;;21.95;28.45;97761.91;5056330;28;915;-76
2024/04/03 03:28:38;;;;;;;;;;;;;;;22.12;28.25;97760.56;5055652;28;922;-76
2024/04/03 03:31:03;;;;;;;;;;;;;;;21.79;28.46;97760.78;5054860;28;1005;-76
2024/04/03 03:33:29;;;;;;;;;;;;;;;21.69;28.78;97767.56;5054601;28;1089;-75
2024/04/03 03:35:57;;;;;;;;;;;;;;;21.60;28.77;97767.44;5055492;28;767;-75
2024/04/03 03:38:23;;;;;;;;;;;;;;;21.78;28.84;97764.88;5055224;28;1894;-75
2024/04/03 03:40:49;;;;;;;;;;;;;;;21.78;28.48;97759.19;5070012;28;1105;-75
2024/04/03 03:43:14;;;;;;;;;;;;;;;21.91;28.55;97747.06;5070503;28;901;-75
2024/04/03 03:45:46;;;;;;;;;;;;;;;21.98;28.17;97746.84;5071196;28;750;-76
2024/04/03 03:48:12;;;;;;;;;;;;;;;21.91;28.40;97756.34;5087974;28;990;-76
2024/04/03 03:53:35;;;;;;;;;;;;;;;21.38;29.34;97769.31;5053040;28;1053;-76
2024/04/03 03:56:07;;;;;;;;;;;;;;;21.74;28.67;97769.03;5057466;28;953;-75
2024/04/03 03:58:33;;;;;;;;;;;;;;;21.66;28.89;97779.81;5040428;28;1971;-76
2024/04/03 04:01:02;;;;;;;;;;;;;;;21.92;28.39;97791.16;5020737;28;1257;-76
2024/04/03 04:03:27;;;;;;;;;;;;;;;21.81;28.97;97791.47;5020637;28;1325;-76
2024/04/03 04:05:59;;;;;;;;;;;;;;;21.63;28.96;97791.25;5020870;28;1063;-75
2024/04/03 04:08:25;;;;;;;;;;;;;;;21.91;28.45;97779.03;5036966;28;972;-76
2024/04/03 04:10:54;;;;;;;;;;;;;;;21.94;28.55;97794.34;5020776;28;1137;-76
2024/04/03 04:13:19;;;;;;;;;;;;;;;21.84;28.64;97797.03;5036995;28;1067;-76
2024/04/03 04:15:45;;;;;;;;;;;;;;;21.52;29.27;97791.56;5037155;28;892;-76
2024/04/03 04:18:11;;;;;;;;;;;;;;;21.74;29.08;97798.16;5020604;28;1992;-76
2024/04/03 04:20:37;;;;;;;;;;;;;;;21.90;28.77;97807.81;5016850;28;1331;-76
2024/04/03 04:23:03;;;;;;;;;;;;;;;21.95;28.54;97812.91;5017261;28;963;-76
2024/04/03 04:25:28;;;;;;;;;;;;;;;21.72;29.11;97809.16;5016856;28;1093;-76
2024/04/03 04:27:54;;;;;;;;;;;;;;;21.80;28.88;97813.34;5016519;28;937;-76
2024/04/03 04:30:19;;;;;;;;;;;;;;;21.90;28.64;97799.31;5020001;28;1322;-76
2024/04/03 04:32:45;;;;;;;;;;;;;;;21.71;29.23;97799.06;5020107;28;1223;-76
2024/04/03 04:35:10;;;;;;;;;;;;;;;21.42;29.66;97803.97;5019653;28;953;-76
2024/04/03 04:37:36;;;;;;;;;;;;;;;21.74;28.96;97798.16;5019653;28;1898;-76
2024/04/03 04:40:02;;;;;;;;;;;;;;;21.46;29.32;97804.69;5003538;28;967;-76
2024/04/03 04:42:28;;;;;;;;;;;;;;;21.62;29.00;97803.81;5019846;28;806;-76
2024/04/03 04:44:53;;;;;;;;;;;;;;;21.71;28.96;97801.91;5019658;28;916;-75
2024/04/03 04:47:19;;;;;;;;;;;;;;;21.74;28.92;97801.00;5036127;28;846;-76
2024/04/03 04:49:44;;;;;;;;;;;;;;;21.74;28.78;97795.31;5019638;28;1431;-76
2024/04/03 04:52:10;;;;;;;;;;;;;;;21.83;28.84;97789.00;5048759;28;994;-76
2024/04/03 04:54:35;;;;;;;;;;;;;;;21.56;29.30;97798.69;5059822;28;925;-75
2024/04/03 04:57:01;;;;;;;;;;;;;;;21.63;28.89;97796.91;5076225;28;762;-76
2024/04/03 04:59:27;;;;;;;;;;;;;;;21.75;29.03;97796.91;5042566;28;1982;-75
2024/04/03 05:01:53;;;;;;;;;;;;;;;21.75;28.79;97796.91;5042716;28;760;-76
2024/04/03 05:04:18;;;;;;;;;;;;;;;21.87;28.65;97797.41;5059004;28;922;-75
2024/04/03 05:06:44;;;;;;;;;;;;;;;21.71;29.08;97804.75;5041937;28;1096;-76
2024/04/03 05:09:09;;;;;;;;;;;;;;;21.69;29.26;97797.94;5042509;28;786;-75
2024/04/03 05:11:35;;;;;;;;;;;;;;;21.89;28.74;97797.72;5075817;28;902;-76
2024/04/03 05:14:00;;;;;;;;;;;;;;;21.64;29.23;97804.16;5059012;28;731;-76
2024/04/03 05:16:26;;;;;;;;;;;;;;;21.64;29.24;97804.94;5063046;28;920;-75
2024/04/03 05:18:51;;;;;;;;;;;;;;;21.77;28.91;97802.94;5056725;28;1906;-76
2024/04/03 05:21:17;;;;;;;;;;;;;;;21.85;29.03;97804.28;5073328;28;806;-76
2024/04/03 05:23:43;;;;;;;;;;;;;;;21.71;28.93;97810.41;5073251;28;1328;-76
2024/04/03 05:26:09;;;;;;;;;;;;;;;21.55;29.49;97824.63;5095560;28;1007;-76
2024/04/03 05:28:38;;;;;;;;;;;;;;;21.60;29.17;97826.88;5078717;28;830;-76
2024/04/03 05:31:10;;;;;;;;;;;;;;;21.92;28.95;97830.81;5062426;28;925;-76
2024/04/03 05:33:38;;;;;;;;;;;;;;;21.54;29.48;97826.66;5062342;28;730;-76
2024/04/03 05:36:04;;;;;;;;;;;;;;;21.72;28.90;97845.19;5078280;28;926;-76
2024/04/03 05:38:30;;;;;;;;;;;;;;;21.63;29.20;97848.66;5078296;28;1913;-75
2024/04/03 05:40:56;;;;;;;;;;;;;;;21.54;29.37;97857.00;5054904;28;894;-76
2024/04/03 05:43:22;;;;;;;;;;;;;;;21.93;28.41;97866.41;5021761;28;1744;-75
2024/04/03 05:45:47;;;;;;;;;;;;;;;21.53;29.13;97866.75;5038428;28;786;-76
2024/04/03 05:48:13;;;;;;;;;;;;;;;21.45;29.11;97876.66;5038398;28;807;-76
2024/04/03 05:50:39;;;;;;;;;;;;;;;21.39;29.41;97884.91;5022019;28;1223;-76
2024/04/03 05:53:04;;;;;;;;;;;;;;;21.71;28.57;97886.88;5021839;28;877;-76
2024/04/03 05:55:30;;;;;;;;;;;;;;;21.50;29.01;97893.09;5054638;28;1178;-76
2024/04/03 05:57:55;;;;;;;;;;;;;;;21.56;28.48;97897.00;5021575;28;1972;-76
2024/04/03 06:00:21;;;;;;;;;;;;;;;21.55;28.67;97906.72;5051741;28;1150;-76
2024/04/03 06:02:46;;;;;;;;;;;;;;;21.43;28.88;97905.44;5051586;28;861;-76
2024/04/03 06:05:12;;;;;;;;;;;;;;;21.40;28.91;97902.69;5051265;28;881;-75
2024/04/03 06:07:38;;;;;;;;;;;;;;;21.49;28.40;97900.00;5018493;28;863;-75
2024/04/03 06:10:04;;;;;;;;;;;;;;;21.54;28.40;97913.63;5034509;28;888;-75
2024/04/03 06:12:30;;;;;;;;;;;;;;;21.38;28.51;97916.50;5051068;28;924;-76
2024/04/03 06:14:56;;;;;;;;;;;;;;;21.21;28.96;97912.88;5071988;28;853;-76
2024/04/03 06:17:21;;;;;;;;;;;;;;;21.39;28.89;97920.91;5088772;28;785;-75
2024/04/03 06:19:47;;;;;;;;;;;;;;;21.48;28.31;97926.75;5089103;28;1913;-76
2024/04/03 06:22:12;;;;;;;;;;;;;;;21.42;28.73;97922.88;5070956;28;1268;-76
2024/04/03 06:24:38;;;;;;;;;;;;;;;21.33;28.62;97924.28;5054524;28;802;-76
2024/04/03 06:27:03;;;;;;;;;;;;;;;21.30;28.84;97933.69;5054501;28;1013;-76
2024/04/03 06:29:29;;;;;;;;;;;;;;;21.45;28.53;97927.63;5037910;28;778;-75
2024/04/03 06:31:54;;;;;;;;;;;;;;;21.40;28.61;97928.97;5054484;28;841;-76
2024/04/03 06:34:20;;;;;;;;;;;;;;;21.63;28.45;97922.28;5037748;28;719;-76
2024/04/03 06:36:45;;;;;;;;;;;;;;;21.76;27.92;97920.28;5037000;28;1398;-76
2024/04/03 06:39:11;;;;;;;;;;;;;;;21.41;28.80;97927.72;5037640;28;1989;-75
2024/04/03 06:41:36;;;;;;;;;;;;;;;21.69;28.48;97920.47;5054393;28;826;-76
2024/04/03 06:44:02;;;;;;;;;;;;;;;21.68;28.44;97927.41;5054097;28;755;-76
2024/04/03 06:46:27;;;;;;;;;;;;;;;21.54;28.60;97936.28;5037367;28;804;-76
2024/04/03 06:48:53;;;;;;;;;;;;;;;21.29;29.02;97932.03;5054045;28;951;-76
2024/04/03 06:51:19;;;;;;;;;;;;;;;21.27;29.30;97933.75;5053841;28;761;-76
2024/04/03 06:53:45;;;;;;;;;;;;;;;21.41;28.81;97935.44;5022309;28;880;-76
2024/04/03 06:56:10;;;;;;;;;;;;;;;21.52;28.93;97939.56;5033707;28;955;-76
2024/04/03 06:58:39;;;;;;;;;;;;;;;21.58;28.80;97931.31;5034013;28;1981;-76
2024/04/03 07:01:04;;;;;;;;;;;;;;;21.69;28.40;97937.47;5017289;28;782;-76
2024/04/03 07:03:30;;;;;;;;;;;;;;;21.49;28.87;97936.81;5033816;28;1114;-76
2024/04/03 07:05:56;;;;;;;;;;;;;;;21.69;28.48;97931.81;5050132;28;797;-76
2024/04/03 07:08:22;;;;;;;;;;;;;;;21.53;28.74;97941.16;5049960;28;795;-76
2024/04/03 07:10:47;;;;;;;;;;;;;;;21.58;28.68;97942.63;5017272;28;1141;-75
2024/04/03 07:13:13;;;;;;;;;;;;;;;21.47;28.73;97942.13;5050279;28;1010;-76
2024/04/03 07:15:38;;;;;;;;;;;;;;;21.49;28.49;97950.97;5033598;28;805;-76
2024/04/03 07:18:04;;;;;;;;;;;;;;;21.32;29.09;97948.19;5056321;28;1894;-75
2024/04/03 07:20:30;;;;;;;;;;;;;;;21.44;28.57;97948.69;5056960;28;837;-76
2024/04/03 07:22:56;;;;;;;;;;;;;;;21.51;28.73;97948.50;5056825;28;942;-76
2024/04/03 07:25:22;;;;;;;;;;;;;;;21.41;28.95;97944.72;5039980;28;1091;-76
2024/04/03 07:27:47;;;;;;;;;;;;;;;21.37;28.69;97943.22;5039768;28;893;-76
2024/04/03 07:30:13;;;;;;;;;;;;;;;21.31;28.77;97952.25;5041617;28;1191;-75
2024/04/03 07:32:39;;;;;;;;;;;;;;;21.68;28.35;97952.88;5076671;28;1681;-76
2024/04/03 07:35:05;;;;;;;;;;;;;;;21.72;28.53;97947.13;5072942;28;883;-76
2024/04/03 07:37:30;;;;;;;;;;;;;;;21.79;28.42;97942.03;5039676;28;1411;-76
2024/04/03 07:39:57;;;;;;;;;;;;;;;21.39;28.99;97943.56;5073053;28;1979;-76
2024/04/03 07:42:22;;;;;;;;;;;;;;;21.68;28.76;97947.22;5056463;28;809;-76
2024/04/03 07:44:49;;;;;;;;;;;;;;;21.72;28.33;97962.06;5056170;28;900;-75
2024/04/03 07:47:15;;;;;;;;;;;;;;;21.36;29.16;97948.09;5056684;28;758;-76
2024/04/03 07:49:40;;;;;;;;;;;;;;;21.79;28.68;97947.69;5009862;28;822;-76
2024/04/03 07:52:06;;;;;;;;;;;;;;;21.45;28.94;97938.94;5033124;28;768;-76
2024/04/03 07:54:31;;;;;;;;;;;;;;;21.32;29.21;97941.72;5033060;28;768;-76
2024/04/03 07:56:57;;;;;;;;;;;;;;;21.26;29.53;97943.47;5033218;28;707;-76
2024/04/03 07:59:22;;;;;;;;;;;;;;;21.58;29.01;97948.31;5016268;28;1914;-76
2024/04/03 08:01:48;;;;;;;;;;;;;;;21.46;29.03;97947.00;5033004;28;824;-76
2024/04/03 08:04:14;;;;;;;;;;;;;;;21.75;28.75;97940.53;5049627;28;743;-76
2024/04/03 08:06:40;;;;;;;;;;;;;;;21.61;28.90;97935.31;5077552;28;789;-75
2024/04/03 08:09:06;;;;;;;;;;;;;;;21.77;28.73;97936.03;5087373;28;773;-76
2024/04/03 08:11:32;;;;;;;;;;;;;;;21.91;28.45;97948.19;5070937;28;1013;-76
2024/04/03 08:13:58;;;;;;;;;;;;;;;21.56;29.06;97942.31;5070972;28;729;-76
2024/04/03 08:16:24;;;;;;;;;;;;;;;21.55;29.03;97944.34;5087797;28;739;-76
2024/04/03 08:18:50;;;;;;;;;;;;;;;21.27;29.59;97943.03;5087373;28;1905;-76
2024/04/03 08:21:15;;;;;;;;;;;;;;;21.49;29.06;97948.94;5071058;28;1090;-76
2024/04/03 08:23:41;;;;;;;;;;;;;;;21.65;28.80;97953.75;5070567;28;773;-76
2024/04/03 08:26:07;;;;;;;;;;;;;;;21.42;29.17;97946.31;5053588;28;1297;-76
2024/04/03 08:28:36;;;;;;;;;;;;;;;21.45;29.42;97955.94;5055270;28;865;-75
2024/04/03 08:31:02;;;;;;;;;;;;;;;21.63;29.05;97959.09;5092721;28;908;-76
2024/04/03 08:33:27;;;;;;;;;;;;;;;21.69;28.92;97954.47;5076111;28;838;-76
2024/04/03 08:35:59;;;;;;;;;;;;;;;21.71;28.61;97952.00;5042389;28;965;-76
2024/04/03 08:38:25;;;;;;;;;;;;;;;21.68;29.04;97957.75;5052063;28;1898;-76
2024/04/03 08:40:54;;;;;;;;;;;;;;;21.59;29.09;97955.56;5052619;28;928;-76
2024/04/03 08:43:19;;;;;;;;;;;;;;;21.54;29.27;97959.72;5039394;28;806;-76
2024/04/03 08:45:45;;;;;;;;;;;;;;;21.26;29.54;97949.94;5039479;28;818;-76
2024/04/03 08:48:10;;;;;;;;;;;;;;;21.62;28.99;97951.84;5019510;28;902;-76
2024/04/03 08:50:36;;;;;;;;;;;;;;;21.63;29.08;97944.94;5019573;28;987;-75
2024/04/03 08:53:01;;;;;;;;;;;;;;;21.40;29.42;97950.81;5035841;28;1089;-76
2024/04/03 08:55:27;;;;;;;;;;;;;;;21.58;29.22;97953.97;5035855;28;954;-76
2024/04/03 08:57:52;;;;;;;;;;;;;;;21.58;29.32;97968.13;5019434;28;1896;-76
2024/04/03 09:00:18;;;;;;;;;;;;;;;21.52;29.32;97972.75;5036403;28;1259;-76
2024/04/03 09:02:44;;;;;;;;;;;;;;;21.63;29.29;97976.06;5003711;28;905;-76
2024/04/03 09:05:10;;;;;;;;;;;;;;;21.62;28.96;97966.00;5015909;28;823;-76
2024/04/03 09:07:35;;;;;;;;;;;;;;;21.71;29.43;97963.31;5032675;28;847;-76
2024/04/03 09:10:01;;;;;;;;;;;;;;;21.75;28.96;97952.66;5045844;28;1000;-75
2024/04/03 09:12:26;;;;;;;;;;;;;;;21.55;29.29;97946.34;5055625;28;882;-76
2024/04/03 09:15:03;;;;;;;;;;;;;;;21.60;29.05;97951.47;5039052;28;982;-76
2024/04/03 09:17:29;;;;;;;;;;;;;;;21.46;29.48;97947.00;5038966;28;830;-76
2024/04/03 09:19:54;;;;;;;;;;;;;;;21.64;29.13;97952.19;5052473;28;1914;-76
2024/04/03 09:22:20;;;;;;;;;;;;;;;21.82;29.21;97943.19;5089989;28;863;-76
2024/04/03 09:24:46;;;;;;;;;;;;;;;21.64;29.06;97940.84;5056671;28;802;-77
2024/04/03 09:27:11;;;;;;;;;;;;;;;21.64;29.31;97957.84;5058141;28;727;-76
2024/04/03 09:29:37;;;;;;;;;;;;;;;21.73;29.03;97946.66;5073194;28;892;-76
2024/04/03 09:32:03;;;;;;;;;;;;;;;21.57;29.43;97958.03;5089800;28;782;-76
2024/04/03 09:34:29;;;;;;;;;;;;;;;21.70;29.22;97949.59;5091869;28;996;-76
2024/04/03 09:36:56;;;;;;;;;;;;;;;21.47;29.63;97954.25;5058225;28;1141;-76
2024/04/03 09:39:22;;;;;;;;;;;;;;;21.86;28.82;97952.38;5058899;28;1914;-76
2024/04/03 09:41:50;;;;;;;;;;;;;;;21.83;28.90;97959.72;5075289;28;747;-76
2024/04/03 09:44:15;;;;;;;;;;;;;;;21.74;28.96;97945.41;5035393;28;1182;-76
2024/04/03 09:46:46;;;;;;;;;;;;;;;21.51;29.45;97954.97;5051615;28;878;-76
2024/04/03 09:49:12;;;;;;;;;;;;;;;21.71;29.30;97946.34;5031197;28;909;-76
2024/04/03 09:51:38;;;;;;;;;;;;;;;21.64;29.36;97945.72;5014672;28;1197;-76
2024/04/03 09:54:03;;;;;;;;;;;;;;;21.56;29.34;97945.94;5015343;28;943;-76
2024/04/03 09:56:29;;;;;;;;;;;;;;;21.67;29.38;97934.31;5032023;28;783;-76
2024/04/03 09:58:54;;;;;;;;;;;;;;;21.63;29.55;97933.59;5031449;28;1984;-76
2024/04/03 10:01:21;;;;;;;;;;;;;;;21.64;29.26;97923.84;5031847;28;857;-76
2024/04/03 10:03:47;;;;;;;;;;;;;;;21.75;29.26;97927.19;5015091;28;820;-76
2024/04/03 10:06:13;;;;;;;;;;;;;;;21.69;29.16;97926.16;5031285;28;839;-76
2024/04/03 10:08:42;;;;;;;;;;;;;;;21.53;29.50;97940.34;5031619;28;770;-76
2024/04/03 10:11:08;;;;;;;;;;;;;;;21.49;29.54;97933.97;4998775;28;939;-76
2024/04/03 10:13:35;;;;;;;;;;;;;;;21.65;29.32;97939.59;5014806;28;1115;-76
2024/04/03 10:16:03;;;;;;;;;;;;;;;21.69;28.87;97931.81;5014218;28;842;-76
2024/04/03 10:18:33;;;;;;;;;;;;;;;21.43;29.44;97935.78;5018352;28;1914;-76
2024/04/03 10:20:59;;;;;;;;;;;;;;;21.61;29.24;97932.47;5047964;28;1543;-76
2024/04/03 10:23:25;;;;;;;;;;;;;;;21.50;29.29;97930.72;5056815;28;754;-76
2024/04/03 10:25:50;;;;;;;;;;;;;;;21.32;29.63;97931.19;5056490;28;774;-76
2024/04/03 10:28:16;;;;;;;;;;;;;;;21.50;29.12;97927.06;5071778;28;770;-76
2024/04/03 10:30:41;;;;;;;;;;;;;;;21.45;29.26;97931.28;5089101;28;778;-76
2024/04/03 10:33:07;;;;;;;;;;;;;;;21.46;29.33;97930.03;5056619;28;802;-76
2024/04/03 10:35:33;;;;;;;;;;;;;;;21.59;28.93;97927.22;5055437;28;735;-76
2024/04/03 10:37:59;;;;;;;;;;;;;;;21.52;29.04;97916.91;5071524;28;1914;-75
2024/04/03 10:40:27;;;;;;;;;;;;;;;21.44;29.27;97914.72;5088859;28;774;-76
2024/04/03 10:42:53;;;;;;;;;;;;;;;21.30;29.40;97910.25;5088750;28;810;-76
2024/04/03 10:45:19;;;;;;;;;;;;;;;21.33;29.37;97921.47;5088568;28;770;-76
2024/04/03 10:47:46;;;;;;;;;;;;;;;21.36;29.30;97904.84;5056371;28;723;-76
2024/04/03 10:50:13;;;;;;;;;;;;;;;21.53;29.06;97918.50;5088373;28;707;-76
2024/04/03 10:52:38;;;;;;;;;;;;;;;21.44;29.03;97915.50;5071596;28;1198;-76
2024/04/03 10:55:04;;;;;;;;;;;;;;;21.43;29.17;97904.63;5055172;28;1277;-76
2024/04/03 10:57:30;;;;;;;;;;;;;;;21.27;29.14;97916.75;5088263;28;727;-76
2024/04/03 10:59:56;;;;;;;;;;;;;;;21.29;29.40;97920.72;5090291;28;1910;-76
2024/04/03 11:02:21;;;;;;;;;;;;;;;21.46;29.09;97907.38;5056954;28;1072;-76
2024/04/03 11:04:48;;;;;;;;;;;;;;;21.31;29.17;97909.81;5056407;28;767;-76
2024/04/03 11:07:14;;;;;;;;;;;;;;;21.44;28.90;97909.06;5057229;28;758;-76
2024/04/03 11:09:40;;;;;;;;;;;;;;;21.22;29.30;97903.94;5056998;28;825;-76
2024/04/03 11:12:06;;;;;;;;;;;;;;;21.42;28.99;97905.88;5073393;28;793;-76
2024/04/03 11:14:32;;;;;;;;;;;;;;;21.52;28.56;97902.75;5039770;28;1331;-76
2024/04/03 11:16:58;;;;;;;;;;;;;;;21.36;29.07;97897.16;5073461;28;799;-76
2024/04/03 11:19:24;;;;;;;;;;;;;;;21.37;28.85;97910.06;5073649;28;1979;-76
2024/04/03 11:21:49;;;;;;;;;;;;;;;21.42;29.05;97901.00;5073700;28;759;-76
2024/04/03 11:24:16;;;;;;;;;;;;;;;21.38;28.74;97894.66;5056623;28;1074;-76
2024/04/03 11:26:43;;;;;;;;;;;;;;;21.47;28.82;97891.19;5057081;28;1130;-76
2024/04/03 11:29:24;;;;;;;;;;;;;;;21.51;28.85;97886.22;5073253;28;1278;-76
2024/04/03 11:31:50;;;;;;;;;;;;;;;21.70;28.84;97905.06;5056528;28;1247;-76
2024/04/03 11:34:15;;;;;;;;;;;;;;;21.31;29.16;97895.66;5057001;28;774;-76
2024/04/03 11:36:41;;;;;;;;;;;;;;;21.32;29.25;97902.91;5069622;28;1247;-76
2024/04/03 11:39:08;;;;;;;;;;;;;;;21.16;29.35;97893.63;5054251;28;1945;-76
2024/04/03 11:41:34;;;;;;;;;;;;;;;21.24;29.34;97901.47;5087387;28;814;-76
2024/04/03 11:43:59;;;;;;;;;;;;;;;21.47;28.84;97891.19;5054241;28;1122;-76
2024/04/03 11:46:25;;;;;;;;;;;;;;;21.36;29.08;97879.38;5055434;28;809;-76
2024/04/03 11:48:54;;;;;;;;;;;;;;;21.45;28.71;97879.50;5088050;28;800;-76
2024/04/03 11:51:20;;;;;;;;;;;;;;;21.52;28.81;97882.16;5054550;28;1212;-76
2024/04/03 11:53:46;;;;;;;;;;;;;;;21.21;29.30;97891.03;5087831;28;722;-76
2024/04/03 11:56:11;;;;;;;;;;;;;;;21.21;29.53;97893.06;5071218;28;1086;-76
2024/04/03 11:58:37;;;;;;;;;;;;;;;21.13;29.57;97895.28;5087430;28;1966;-76
2024/04/03 12:01:02;;;;;;;;;;;;;;;21.32;29.14;97880.25;5054463;28;750;-76
2024/04/03 12:03:28;;;;;;;;;;;;;;;21.17;29.24;97873.34;5087889;28;719;-76
2024/04/03 12:05:53;;;;;;;;;;;;;;;21.33;28.78;97881.84;5053920;28;766;-76
2024/04/03 12:08:22;;;;;;;;;;;;;;;21.27;29.10;97880.75;5055216;28;850;-76
2024/04/03 12:10:48;;;;;;;;;;;;;;;21.32;28.92;97877.41;5053845;28;1121;-76
2024/04/03 12:13:13;;;;;;;;;;;;;;;21.37;28.84;97875.28;5070535;28;825;-76
2024/04/03 12:15:41;;;;;;;;;;;;;;;21.29;28.97;97864.13;5056238;28;1087;-76
2024/04/03 12:18:10;;;;;;;;;;;;;;;21.11;29.34;97874.34;5057906;28;1909;-76
2024/04/03 12:20:38;;;;;;;;;;;;;;;21.30;28.86;97865.75;5057718;28;727;-76
2024/04/03 12:23:03;;;;;;;;;;;;;;;21.30;29.03;97871.44;5091250;28;735;-76
2024/04/03 12:25:29;;;;;;;;;;;;;;;21.39;28.88;97861.47;5074644;28;750;-76
2024/04/03 12:27:54;;;;;;;;;;;;;;;21.29;28.96;97863.31;5091390;28;901;-76
2024/04/03 12:30:20;;;;;;;;;;;;;;;21.53;28.61;97863.91;5041221;28;795;-76
2024/04/03 12:32:45;;;;;;;;;;;;;;;21.29;29.08;97869.00;5091493;28;758;-76
2024/04/03 12:35:11;;;;;;;;;;;;;;;21.12;29.24;97865.41;5057597;28;1664;-76
2024/04/03 12:37:36;;;;;;;;;;;;;;;21.39;28.81;97864.31;5091340;28;1070;-76
2024/04/03 12:40:02;;;;;;;;;;;;;;;21.39;28.79;97867.13;5058736;28;1973;-76
2024/04/03 12:42:27;;;;;;;;;;;;;;;21.27;29.01;97860.94;5091237;28;794;-76
2024/04/03 12:44:54;;;;;;;;;;;;;;;21.25;29.07;97860.63;5057594;28;1271;-76
2024/04/03 12:47:19;;;;;;;;;;;;;;;21.18;29.03;97863.63;5090656;28;781;-76
2024/04/03 12:49:45;;;;;;;;;;;;;;;21.04;29.27;97858.38;5074064;28;1213;-76
2024/04/03 12:52:10;;;;;;;;;;;;;;;21.18;29.14;97863.63;5057449;28;782;-76
2024/04/03 12:54:37;;;;;;;;;;;;;;;21.44;28.90;97858.09;5090942;28;972;-76
2024/04/03 12:57:03;;;;;;;;;;;;;;;21.50;28.38;97859.97;5056944;28;995;-76
2024/04/03 12:59:28;;;;;;;;;;;;;;;21.50;28.48;97867.63;5057213;28;1909;-76